createdAt,value
2023-04-27T00:00:59.738Z,99458.47
2023-04-27T00:02:02.372Z,99460.28
2023-04-27T00:03:07.902Z,99465.44
2023-04-27T00:04:10.339Z,99470.75
2023-04-27T00:05:13.637Z,99462.66
2023-04-27T00:06:15.858Z,99462.59
2023-04-27T00:07:17.823Z,99460.84
2023-04-27T00:08:20.179Z,99463.44
2023-04-27T00:09:22.794Z,99461.63
2023-04-27T00:10:25.140Z,99462.59
2023-04-27T00:11:27.287Z,99464.41
2023-04-27T00:12:29.454Z,99466.94
2023-04-27T00:13:31.545Z,99468.66
2023-04-27T00:14:33.745Z,99465.25
2023-04-27T00:15:35.693Z,99468.66
2023-04-27T00:16:37.957Z,99476.56
2023-04-27T00:17:40.184Z,99473.97
2023-04-27T00:18:42.531Z,99469.63
2023-04-27T00:19:45.377Z,99479.31
2023-04-27T00:20:50.088Z,99474.94
2023-04-27T00:21:52.232Z,99477.53
2023-04-27T00:22:54.269Z,99474.75
2023-04-27T00:23:56.683Z,99475.53
2023-04-27T00:24:58.840Z,99475.53
2023-04-27T00:26:01.111Z,99479.84
2023-04-27T00:27:03.410Z,99475.34
2023-04-27T00:28:09.534Z,99486.00
2023-04-27T00:29:14.367Z,99481.63
2023-04-27T00:30:16.551Z,99485.16
2023-04-27T00:31:18.819Z,99480.75
2023-04-27T00:32:20.913Z,99481.63
2023-04-27T00:33:23.182Z,99487.72
2023-04-27T00:34:26.374Z,99489.53
2023-04-27T00:35:28.424Z,99487.72
2023-04-27T00:36:30.449Z,99493.06
2023-04-27T00:37:32.760Z,99486.00
2023-04-27T00:38:34.807Z,99486.00
2023-04-27T00:39:37.122Z,99487.72
2023-04-27T00:40:39.935Z,99490.38
2023-04-27T00:41:42.063Z,99488.69
2023-04-27T00:42:44.123Z,99482.50
2023-04-27T00:43:47.066Z,99480.69
2023-04-27T00:44:49.231Z,99486.00
2023-04-27T00:45:51.698Z,99483.34
2023-04-27T00:46:54.670Z,99483.25
2023-04-27T00:47:57.191Z,99477.84
2023-04-27T00:48:59.393Z,99482.22
2023-04-27T00:50:01.789Z,99484.03
2023-04-27T00:51:04.089Z,99485.72
2023-04-27T00:52:06.715Z,99487.53
2023-04-27T00:53:08.905Z,99480.50
2023-04-27T00:54:11.491Z,99487.53
2023-04-27T00:55:13.821Z,99484.88
2023-04-27T00:56:16.631Z,99478.78
2023-04-27T00:57:19.382Z,99478.78
2023-04-27T00:58:21.664Z,99481.53
2023-04-27T00:59:23.597Z,99481.53
2023-04-27T01:00:25.690Z,99476.22
2023-04-27T01:01:27.904Z,99470.88
2023-04-27T01:02:30.528Z,99475.34
2023-04-27T01:03:32.920Z,99472.78
2023-04-27T01:04:37.240Z,99480.88
2023-04-27T01:05:39.710Z,99474.88
2023-04-27T01:06:41.940Z,99480.28
2023-04-27T01:07:43.994Z,99477.59
2023-04-27T01:08:47.068Z,99481.13
2023-04-27T01:09:49.039Z,99481.22
2023-04-27T01:10:51.155Z,99484.81
2023-04-27T01:11:53.487Z,99482.16
2023-04-27T01:12:55.777Z,99493.75
2023-04-27T01:13:58.180Z,99487.59
2023-04-27T01:15:00.430Z,99478.75
2023-04-27T01:16:02.544Z,99482.34
2023-04-27T01:17:04.774Z,99488.44
2023-04-27T01:18:07.438Z,99487.59
2023-04-27T01:19:09.620Z,99479.50
2023-04-27T01:20:12.171Z,99483.13
2023-04-27T01:21:14.804Z,99481.41
2023-04-27T01:22:17.083Z,99481.41
2023-04-27T01:23:19.148Z,99475.38
2023-04-27T01:24:21.397Z,99485.16
2023-04-27T01:25:23.700Z,99481.59
2023-04-27T01:26:25.842Z,99486.91
2023-04-27T01:27:27.984Z,99493.88
2023-04-27T01:28:30.190Z,99492.25
2023-04-27T01:29:32.402Z,99499.25
2023-04-27T01:30:34.344Z,99500.13
2023-04-27T01:31:36.816Z,99494.00
2023-04-27T01:32:39.290Z,99495.06
2023-04-27T01:33:42.105Z,99494.13
2023-04-27T01:34:44.125Z,99493.94
2023-04-27T01:35:46.408Z,99500.13
2023-04-27T01:36:48.494Z,99501.94
2023-04-27T01:37:51.677Z,99500.97
2023-04-27T01:38:53.656Z,99504.59
2023-04-27T01:39:56.032Z,99508.22
2023-04-27T01:41:02.104Z,99504.78
2023-04-27T01:42:04.676Z,99515.31
2023-04-27T01:43:06.724Z,99511.81
2023-04-27T01:44:08.765Z,99508.22
2023-04-27T01:45:11.747Z,99508.22
2023-04-27T01:46:14.686Z,99516.94
2023-04-27T01:47:19.688Z,99515.94
2023-04-27T01:48:21.837Z,99518.59
2023-04-27T01:49:23.815Z,99515.00
2023-04-27T01:50:25.940Z,99508.78
2023-04-27T01:51:27.916Z,99518.59
2023-04-27T01:52:30.348Z,99516.78
2023-04-27T01:53:32.527Z,99518.50
2023-04-27T01:54:34.636Z,99522.09
2023-04-27T01:55:36.827Z,99524.75
2023-04-27T01:56:39.116Z,99526.41
2023-04-27T01:57:41.356Z,99526.41
2023-04-27T01:58:43.591Z,99529.00
2023-04-27T01:59:45.652Z,99525.38
2023-04-27T02:00:47.702Z,99531.38
2023-04-27T02:01:49.821Z,99528.63
2023-04-27T02:02:53.936Z,99532.16
2023-04-27T02:03:56.276Z,99531.13
2023-04-27T02:04:58.475Z,99533.97
2023-04-27T02:06:01.107Z,99530.34
2023-04-27T02:07:03.616Z,99532.03
2023-04-27T02:08:06.501Z,99537.19
2023-04-27T02:09:09.309Z,99534.53
2023-04-27T02:10:11.339Z,99539.97
2023-04-27T02:11:13.576Z,99532.03
2023-04-27T02:12:15.785Z,99541.84
2023-04-27T02:13:18.038Z,99544.44
2023-04-27T02:14:19.993Z,99537.47
2023-04-27T02:15:42.135Z,99539.28
2023-04-27T02:16:44.297Z,99533.97
2023-04-27T02:17:47.154Z,99542.69
2023-04-27T02:18:49.653Z,99544.44
2023-04-27T02:19:51.794Z,99542.69
2023-04-27T02:20:53.913Z,99542.69
2023-04-27T02:21:56.204Z,99548.13
2023-04-27T02:22:58.316Z,99553.34
2023-04-27T02:24:01.749Z,99549.78
2023-04-27T02:25:04.237Z,99549.78
2023-04-27T02:26:06.402Z,99552.34
2023-04-27T02:27:08.776Z,99555.00
2023-04-27T02:28:24.628Z,99555.84
2023-04-27T02:29:42.686Z,99556.72
2023-04-27T02:31:01.539Z,99558.50
2023-04-27T02:32:06.817Z,99550.63
2023-04-27T02:33:11.417Z,99561.03
2023-04-27T02:34:19.822Z,99551.31
2023-04-27T02:35:22.100Z,99550.28
2023-04-27T02:36:24.204Z,99554.56
2023-04-27T02:37:26.300Z,99554.56
2023-04-27T02:38:30.247Z,99554.28
2023-04-27T02:39:32.283Z,99556.88
2023-04-27T02:40:34.316Z,99562.19
2023-04-27T02:41:42.412Z,99566.69
2023-04-27T02:42:53.762Z,99564.00
2023-04-27T02:43:56.289Z,99564.88
2023-04-27T02:44:58.540Z,99562.38
2023-04-27T02:46:04.812Z,99571.22
2023-04-27T02:47:06.919Z,99572.25
2023-04-27T02:48:09.062Z,99577.75
2023-04-27T02:49:11.678Z,99576.06
2023-04-27T02:50:14.061Z,99575.28
2023-04-27T02:51:16.281Z,99580.44
2023-04-27T02:52:18.357Z,99579.50
2023-04-27T02:53:20.507Z,99581.22
2023-04-27T02:54:22.464Z,99584.84
2023-04-27T02:55:24.658Z,99580.19
2023-04-27T02:56:26.776Z,99585.41
2023-04-27T02:57:29.046Z,99579.16
2023-04-27T02:58:32.053Z,99583.59
2023-04-27T02:59:34.306Z,99579.31
2023-04-27T03:00:36.471Z,99584.66
2023-04-27T03:01:38.620Z,99589.97
2023-04-27T03:02:40.934Z,99592.66
2023-04-27T03:03:47.314Z,99589.97
2023-04-27T03:04:54.040Z,99591.69
2023-04-27T03:05:56.737Z,99586.25
2023-04-27T03:07:05.081Z,99590.72
2023-04-27T03:08:47.178Z,99588.00
2023-04-27T03:09:57.135Z,99579.66
2023-04-27T03:10:59.365Z,99583.06
2023-04-27T03:12:03.001Z,99598.97
2023-04-27T03:13:05.132Z,99590.63
2023-04-27T03:14:07.077Z,99591.66
2023-04-27T03:15:09.578Z,99596.97
2023-04-27T03:16:12.074Z,99596.13
2023-04-27T03:17:14.142Z,99592.50
2023-04-27T03:18:16.894Z,99593.28
2023-04-27T03:19:19.005Z,99595.97
2023-04-27T03:20:22.207Z,99596.72
2023-04-27T03:21:24.429Z,99601.03
2023-04-27T03:22:26.990Z,99603.53
2023-04-27T03:23:29.098Z,99591.78
2023-04-27T03:24:31.205Z,99592.50
2023-04-27T03:25:33.320Z,99595.16
2023-04-27T03:26:35.319Z,99589.72
2023-04-27T03:27:37.327Z,99592.31
2023-04-27T03:28:40.096Z,99596.63
2023-04-27T03:29:42.112Z,99600.88
2023-04-27T03:30:44.098Z,99589.19
2023-04-27T03:31:46.326Z,99594.31
2023-04-27T03:32:48.681Z,99595.88
2023-04-27T03:33:50.787Z,99597.59
2023-04-27T03:34:53.538Z,99597.50
2023-04-27T03:35:59.068Z,99595.53
2023-04-27T03:37:01.895Z,99596.25
2023-04-27T03:38:04.046Z,99601.53
2023-04-27T03:39:06.005Z,99596.84
2023-04-27T03:40:08.873Z,99597.47
2023-04-27T03:41:10.902Z,99603.66
2023-04-27T03:42:12.963Z,99605.47
2023-04-27T03:43:15.330Z,99602.72
2023-04-27T03:44:17.460Z,99601.78
2023-04-27T03:45:22.495Z,99601.59
2023-04-27T03:46:24.775Z,99605.78
2023-04-27T03:47:26.861Z,99606.44
2023-04-27T03:48:29.836Z,99614.84
2023-04-27T03:49:31.761Z,99605.63
2023-04-27T03:50:34.179Z,99617.06
2023-04-27T03:51:36.133Z,99607.31
2023-04-27T03:52:38.391Z,99601.06
2023-04-27T03:53:40.523Z,99611.72
2023-04-27T03:54:43.032Z,99615.34
2023-04-27T03:55:45.499Z,99614.59
2023-04-27T03:56:48.039Z,99612.66
2023-04-27T03:57:50.088Z,99610.69
2023-04-27T03:58:52.478Z,99609.72
2023-04-27T03:59:54.630Z,99612.25
2023-04-27T04:00:57.506Z,99610.19
2023-04-27T04:02:01.999Z,99609.84
2023-04-27T04:03:05.467Z,99601.97
2023-04-27T04:04:07.802Z,99608.38
2023-04-27T04:05:11.168Z,99604.25
2023-04-27T04:06:13.527Z,99603.09
2023-04-27T04:07:15.899Z,99613.22
2023-04-27T04:08:17.992Z,99606.44
2023-04-27T04:09:22.722Z,99605.69
2023-04-27T04:10:26.244Z,99611.81
2023-04-27T04:11:28.569Z,99606.63
2023-04-27T04:12:30.637Z,99604.00
2023-04-27T04:13:32.626Z,99608.59
2023-04-27T04:14:34.560Z,99608.59
2023-04-27T04:15:36.821Z,99600.56
2023-04-27T04:16:39.492Z,99596.41
2023-04-27T04:17:41.709Z,99606.47
2023-04-27T04:18:43.716Z,99599.28
2023-04-27T04:19:45.994Z,99602.31
2023-04-27T04:20:47.942Z,99599.38
2023-04-27T04:21:50.073Z,99603.28
2023-04-27T04:22:52.242Z,99604.50
2023-04-27T04:23:54.299Z,99602.25
2023-04-27T04:24:56.227Z,99595.78
2023-04-27T04:25:58.603Z,99602.53
2023-04-27T04:27:00.756Z,99599.97
2023-04-27T04:28:02.945Z,99584.53
2023-04-27T04:29:05.245Z,99601.41
2023-04-27T04:30:08.459Z,99596.88
2023-04-27T04:31:10.918Z,99592.72
2023-04-27T04:32:17.844Z,99603.28
2023-04-27T04:33:20.392Z,99590.38
2023-04-27T04:34:23.107Z,99598.66
2023-04-27T04:35:25.002Z,99599.84
2023-04-27T04:36:27.166Z,99588.03
2023-04-27T04:37:29.138Z,99600.19
2023-04-27T04:38:31.493Z,99596.50
2023-04-27T04:39:33.751Z,99596.72
2023-04-27T04:40:36.482Z,99604.03
2023-04-27T04:41:38.537Z,99597.19
2023-04-27T04:42:40.842Z,99599.03
2023-04-27T04:43:42.687Z,99596.06
2023-04-27T04:44:45.194Z,99603.25
2023-04-27T04:45:47.379Z,99607.06
2023-04-27T04:46:49.754Z,99608.91
2023-04-27T04:47:54.664Z,99605.38
2023-04-27T04:48:56.904Z,99601.94
2023-04-27T04:49:59.225Z,99604.63
2023-04-27T04:51:01.385Z,99598.78
2023-04-27T04:52:07.364Z,99600.00
2023-04-27T04:53:09.533Z,99599.13
2023-04-27T04:54:12.043Z,99606.78
2023-04-27T04:55:17.475Z,99600.19
2023-04-27T04:56:19.482Z,99603.47
2023-04-27T04:57:22.397Z,99599.03
2023-04-27T04:58:25.699Z,99605.19
2023-04-27T04:59:28.339Z,99596.41
2023-04-27T05:00:31.557Z,99602.47
2023-04-27T05:01:33.850Z,99605.28
2023-04-27T05:02:36.131Z,99604.84
2023-04-27T05:03:38.519Z,99606.13
2023-04-27T05:04:41.051Z,99600.28
2023-04-27T05:05:43.346Z,99601.91
2023-04-27T05:06:45.247Z,99602.47
2023-04-27T05:07:47.244Z,99604.53
2023-04-27T05:08:49.359Z,99604.72
2023-04-27T05:09:51.493Z,99605.88
2023-04-27T05:10:54.349Z,99607.53
2023-04-27T05:11:56.426Z,99606.66
2023-04-27T05:12:58.440Z,99612.19
2023-04-27T05:14:00.522Z,99602.25
2023-04-27T05:15:02.712Z,99609.09
2023-04-27T05:16:09.969Z,99614.31
2023-04-27T05:17:12.688Z,99607.94
2023-04-27T05:18:14.757Z,99606.50
2023-04-27T05:19:18.843Z,99609.16
2023-04-27T05:20:21.497Z,99606.97
2023-04-27T05:21:23.522Z,99612.63
2023-04-27T05:22:25.790Z,99616.16
2023-04-27T05:23:28.079Z,99612.72
2023-04-27T05:24:30.098Z,99607.47
2023-04-27T05:25:41.737Z,99612.97
2023-04-27T05:26:44.067Z,99612.84
2023-04-27T05:27:46.247Z,99617.19
2023-04-27T05:28:49.672Z,99617.63
2023-04-27T05:29:51.937Z,99607.09
2023-04-27T05:30:54.449Z,99608.28
2023-04-27T05:31:56.999Z,99610.53
2023-04-27T05:32:59.830Z,99604.03
2023-04-27T05:34:01.859Z,99614.47
2023-04-27T05:35:05.665Z,99613.75
2023-04-27T05:36:07.813Z,99615.09
2023-04-27T05:37:09.921Z,99621.31
2023-04-27T05:38:11.996Z,99617.25
2023-04-27T05:39:14.588Z,99622.44
2023-04-27T05:40:17.083Z,99616.94
2023-04-27T05:41:19.295Z,99621.13
2023-04-27T05:42:22.001Z,99621.84
2023-04-27T05:43:25.836Z,99621.53
2023-04-27T05:44:29.586Z,99621.66
2023-04-27T05:45:31.561Z,99620.59
2023-04-27T05:46:34.418Z,99618.94
2023-04-27T05:47:37.518Z,99611.19
2023-04-27T05:48:39.663Z,99616.41
2023-04-27T05:49:41.738Z,99619.88
2023-04-27T05:50:43.993Z,99622.38
2023-04-27T05:51:46.094Z,99624.56
2023-04-27T05:52:48.253Z,99615.75
2023-04-27T05:53:50.469Z,99618.66
2023-04-27T05:54:52.527Z,99613.00
2023-04-27T05:55:54.803Z,99618.16
2023-04-27T05:56:56.954Z,99626.19
2023-04-27T05:58:07.900Z,99614.56
2023-04-27T05:59:11.970Z,99616.91
2023-04-27T06:00:15.434Z,99618.75
2023-04-27T06:01:17.710Z,99620.72
2023-04-27T06:02:20.768Z,99615.94
2023-04-27T06:03:23.555Z,99611.25
2023-04-27T06:04:25.848Z,99615.03
2023-04-27T06:05:28.590Z,99618.59
2023-04-27T06:06:35.570Z,99611.44
2023-04-27T06:07:38.155Z,99608.75
2023-04-27T06:08:40.898Z,99613.88
2023-04-27T06:09:43.019Z,99618.75
2023-04-27T06:10:45.087Z,99617.22
2023-04-27T06:11:47.793Z,99604.72
2023-04-27T06:12:49.760Z,99616.19
2023-04-27T06:13:51.805Z,99611.69
2023-04-27T06:14:53.753Z,99610.94
2023-04-27T06:15:56.074Z,99613.38
2023-04-27T06:16:58.470Z,99611.28
2023-04-27T06:18:00.533Z,99619.09
2023-04-27T06:19:02.596Z,99614.28
2023-04-27T06:20:12.235Z,99618.44
2023-04-27T06:21:14.444Z,99615.97
2023-04-27T06:22:16.780Z,99611.69
2023-04-27T06:23:18.766Z,99596.09
2023-04-27T06:24:21.152Z,99619.16
2023-04-27T06:25:24.447Z,99609.53
2023-04-27T06:26:28.870Z,99620.09
2023-04-27T06:27:31.211Z,99620.63
2023-04-27T06:28:34.159Z,99605.41
2023-04-27T06:29:36.129Z,99613.75
2023-04-27T06:30:39.616Z,99615.41
2023-04-27T06:31:41.889Z,99619.66
2023-04-27T06:32:44.347Z,99614.81
2023-04-27T06:33:46.372Z,99613.88
2023-04-27T06:34:49.678Z,99631.53
2023-04-27T06:35:52.069Z,99612.34
2023-04-27T06:36:54.245Z,99614.47
2023-04-27T06:37:59.102Z,99619.38
2023-04-27T06:39:01.837Z,99617.56
2023-04-27T06:40:04.754Z,99619.16
2023-04-27T06:41:06.867Z,99623.69
2023-04-27T06:42:09.027Z,99623.59
2023-04-27T06:43:11.350Z,99617.72
2023-04-27T06:44:13.232Z,99622.13
2023-04-27T06:45:15.225Z,99625.44
2023-04-27T06:46:18.000Z,99615.91
2023-04-27T06:47:20.024Z,99623.22
2023-04-27T06:48:21.954Z,99619.44
2023-04-27T06:49:24.366Z,99625.81
2023-04-27T06:50:26.569Z,99619.09
2023-04-27T06:51:28.629Z,99611.88
2023-04-27T06:52:33.348Z,99612.22
2023-04-27T06:53:35.852Z,99617.34
2023-04-27T06:54:37.988Z,99607.47
2023-04-27T06:55:43.043Z,99615.53
2023-04-27T06:56:46.413Z,99608.44
2023-04-27T06:57:48.659Z,99609.44
2023-04-27T06:58:50.687Z,99610.63
2023-04-27T06:59:52.807Z,99616.25
2023-04-27T07:00:54.850Z,99612.13
2023-04-27T07:01:57.046Z,99604.06
2023-04-27T07:02:59.285Z,99610.78
2023-04-27T07:04:01.736Z,99622.28
2023-04-27T07:05:04.055Z,99618.22
2023-04-27T07:06:07.076Z,99614.31
2023-04-27T07:07:09.309Z,99615.78
2023-04-27T07:08:11.569Z,99612.72
2023-04-27T07:09:26.598Z,99623.13
2023-04-27T07:10:30.363Z,99613.56
2023-04-27T07:11:32.412Z,99615.53
2023-04-27T07:12:34.724Z,99609.19
2023-04-27T07:13:36.824Z,99617.00
2023-04-27T07:14:38.860Z,99616.75
2023-04-27T07:15:40.860Z,99611.59
2023-04-27T07:16:44.386Z,99624.28
2023-04-27T07:17:46.793Z,99622.09
2023-04-27T07:18:49.207Z,99605.44
2023-04-27T07:19:51.550Z,99608.63
2023-04-27T07:20:53.774Z,99609.09
2023-04-27T07:21:56.248Z,99615.34
2023-04-27T07:22:58.644Z,99614.22
2023-04-27T07:24:00.764Z,99611.31
2023-04-27T07:25:02.949Z,99614.34
2023-04-27T07:26:05.126Z,99620.81
2023-04-27T07:27:08.381Z,99615.75
2023-04-27T07:28:10.413Z,99625.41
2023-04-27T07:30:18.885Z,99620.25
2023-04-27T07:31:21.803Z,99626.09
2023-04-27T07:32:24.170Z,99628.75
2023-04-27T07:33:28.061Z,99617.91
2023-04-27T07:34:41.147Z,99633.81
2023-04-27T07:35:47.770Z,99619.81
2023-04-27T07:36:50.026Z,99619.56
2023-04-27T07:37:52.289Z,99630.06
2023-04-27T07:38:54.734Z,99621.53
2023-04-27T07:39:57.842Z,99629.16
2023-04-27T07:41:02.142Z,99617.66
2023-04-27T07:42:04.574Z,99623.78
2023-04-27T07:43:06.515Z,99616.28
2023-04-27T07:44:08.508Z,99617.66
2023-04-27T07:45:10.893Z,99629.75
2023-04-27T07:46:13.232Z,99623.50
2023-04-27T07:47:15.212Z,99614.69
2023-04-27T07:48:17.394Z,99629.44
2023-04-27T07:49:20.213Z,99635.31
2023-04-27T07:50:24.943Z,99628.47
2023-04-27T07:51:28.982Z,99631.31
2023-04-27T07:52:31.144Z,99631.44
2023-04-27T07:53:35.797Z,99628.75
2023-04-27T07:54:38.110Z,99621.13
2023-04-27T07:55:41.006Z,99613.00
2023-04-27T07:56:43.501Z,99622.72
2023-04-27T07:57:45.882Z,99621.00
2023-04-27T07:58:47.988Z,99611.47
2023-04-27T07:59:50.020Z,99623.41
2023-04-27T08:00:52.107Z,99623.94
2023-04-27T08:01:59.186Z,99620.88
2023-04-27T08:03:09.672Z,99611.34
2023-04-27T08:04:13.690Z,99616.41
2023-04-27T08:05:16.291Z,99634.75
2023-04-27T08:06:19.742Z,99615.25
2023-04-27T08:07:22.529Z,99614.44
2023-04-27T08:08:24.573Z,99629.81
2023-04-27T08:09:27.324Z,99621.34
2023-04-27T08:10:29.461Z,99631.50
2023-04-27T08:11:32.310Z,99631.78
2023-04-27T08:12:35.213Z,99624.91
2023-04-27T08:13:37.338Z,99636.59
2023-04-27T08:14:39.262Z,99629.53
2023-04-27T08:15:41.699Z,99626.56
2023-04-27T08:16:44.659Z,99632.53
2023-04-27T08:17:47.484Z,99626.50
2023-04-27T08:18:52.486Z,99635.47
2023-04-27T08:19:54.580Z,99634.66
2023-04-27T08:20:56.497Z,99637.25
2023-04-27T08:21:58.604Z,99636.31
2023-04-27T08:23:00.696Z,99629.88
2023-04-27T08:24:03.928Z,99622.38
2023-04-27T08:25:07.452Z,99624.91
2023-04-27T08:26:14.759Z,99631.25
2023-04-27T08:27:16.690Z,99627.13
2023-04-27T08:28:18.802Z,99625.81
2023-04-27T08:29:27.756Z,99630.97
2023-04-27T08:30:30.686Z,99639.22
2023-04-27T08:31:32.618Z,99624.03
2023-04-27T08:32:35.067Z,99632.81
2023-04-27T08:33:37.039Z,99630.53
2023-04-27T08:34:39.220Z,99634.13
2023-04-27T08:35:41.779Z,99631.09
2023-04-27T08:36:43.994Z,99644.06
2023-04-27T08:37:46.188Z,99633.13
2023-04-27T08:38:48.374Z,99638.72
2023-04-27T08:39:50.420Z,99635.47
2023-04-27T08:40:52.516Z,99639.06
2023-04-27T08:41:54.548Z,99634.38
2023-04-27T08:42:58.560Z,99630.03
2023-04-27T08:44:00.528Z,99634.31
2023-04-27T08:45:02.909Z,99637.44
2023-04-27T08:46:05.117Z,99641.41
2023-04-27T08:47:08.071Z,99638.97
2023-04-27T08:48:09.995Z,99636.13
2023-04-27T08:49:13.143Z,99651.06
2023-04-27T08:50:17.090Z,99640.13
2023-04-27T08:51:20.542Z,99643.63
2023-04-27T08:52:22.534Z,99654.28
2023-04-27T08:53:24.777Z,99644.44
2023-04-27T08:54:27.312Z,99654.84
2023-04-27T08:55:30.130Z,99651.69
2023-04-27T08:56:32.134Z,99643.75
2023-04-27T08:57:34.602Z,99646.75
2023-04-27T08:58:39.773Z,99645.06
2023-04-27T08:59:42.004Z,99642.09
2023-04-27T09:00:46.152Z,99647.41
2023-04-27T09:01:49.993Z,99651.31
2023-04-27T09:06:02.912Z,99658.41
2023-04-27T09:07:12.233Z,99657.13
2023-04-27T09:08:46.636Z,99650.44
2023-04-27T09:14:36.403Z,99644.81
2023-04-27T09:15:48.421Z,99658.72
2023-04-27T09:16:58.779Z,99648.16
2023-04-27T09:20:55.253Z,99652.78
2023-04-27T09:25:06.755Z,99650.09
2023-04-27T09:26:47.132Z,99660.78
2023-04-27T09:37:27.524Z,99657.81
2023-04-27T09:40:36.542Z,99660.59
2023-04-27T09:43:17.008Z,99672.00
2023-04-27T09:47:21.566Z,99667.19
2023-04-27T09:49:54.148Z,99674.00
2023-04-27T09:53:54.805Z,99668.66
2023-04-27T09:54:58.778Z,99666.13
2023-04-27T09:56:19.450Z,99670.16
2023-04-27T09:57:31.244Z,99675.53
2023-04-27T09:58:51.334Z,99684.88
2023-04-27T10:01:51.556Z,99671.56
2023-04-27T10:03:12.402Z,99672.13
2023-04-27T10:04:51.805Z,99675.72
2023-04-27T10:06:16.079Z,99675.91
2023-04-27T10:07:18.399Z,99680.63
2023-04-27T10:08:21.167Z,99675.50
2023-04-27T10:09:23.996Z,99671.47
2023-04-27T10:10:26.690Z,99675.28
2023-04-27T10:11:41.171Z,99669.47
2023-04-27T10:12:43.423Z,99675.03
2023-04-27T10:13:54.808Z,99694.22
2023-04-27T10:14:59.092Z,99668.94
2023-04-27T10:16:16.711Z,99668.81
2023-04-27T10:17:20.068Z,99678.53
2023-04-27T10:18:33.741Z,99675.56
2023-04-27T10:19:35.759Z,99681.94
2023-04-27T10:20:38.190Z,99691.75
2023-04-27T10:21:57.068Z,99668.34
2023-04-27T10:23:00.542Z,99679.69
2023-04-27T10:24:09.942Z,99671.25
2023-04-27T10:25:22.314Z,99673.94
2023-04-27T10:26:26.278Z,99681.72
2023-04-27T10:27:28.340Z,99672.19
2023-04-27T10:28:39.171Z,99670.09
2023-04-27T10:29:45.132Z,99667.72
2023-04-27T10:30:49.360Z,99678.06
2023-04-27T10:31:51.392Z,99669.97
2023-04-27T10:32:59.132Z,99684.66
2023-04-27T10:34:11.810Z,99681.13
2023-04-27T10:35:14.592Z,99671.59
2023-04-27T10:36:16.724Z,99670.19
2023-04-27T10:37:25.582Z,99674.47
2023-04-27T10:38:31.600Z,99668.44
2023-04-27T10:39:47.681Z,99672.97
2023-04-27T10:41:02.246Z,99678.69
2023-04-27T10:42:05.890Z,99678.63
2023-04-27T10:43:13.495Z,99671.75
2023-04-27T10:44:21.032Z,99674.94
2023-04-27T10:45:31.585Z,99677.81
2023-04-27T10:46:36.602Z,99679.53
2023-04-27T10:47:45.764Z,99667.44
2023-04-27T10:48:48.330Z,99673.41
2023-04-27T10:49:54.805Z,99678.63
2023-04-27T10:50:57.466Z,99668.63
2023-04-27T10:52:00.181Z,99668.34
2023-04-27T10:53:06.433Z,99674.63
2023-04-27T10:54:09.311Z,99685.97
2023-04-27T10:55:22.528Z,99673.22
2023-04-27T10:56:25.196Z,99675.19
2023-04-27T10:57:27.857Z,99683.69
2023-04-27T10:58:41.477Z,99666.19
2023-04-27T10:59:53.479Z,99671.44
2023-04-27T11:00:56.157Z,99668.41
2023-04-27T11:01:58.547Z,99675.38
2023-04-27T11:03:17.102Z,99673.72
2023-04-27T11:04:19.963Z,99676.56
2023-04-27T11:05:30.166Z,99673.44
2023-04-27T11:06:33.558Z,99674.94
2023-04-27T11:07:35.844Z,99665.00
2023-04-27T11:09:16.584Z,99667.81
2023-04-27T11:10:19.816Z,99671.25
2023-04-27T11:11:22.807Z,99671.28
2023-04-27T11:13:56.148Z,99664.38
2023-04-27T11:16:30.780Z,99665.09
2023-04-27T11:19:06.959Z,99673.88
2023-04-27T11:20:09.897Z,99659.41
2023-04-27T11:21:20.770Z,99667.81
2023-04-27T11:22:47.749Z,99672.22
2023-04-27T11:23:49.956Z,99669.25
2023-04-27T11:26:26.892Z,99679.78
2023-04-27T11:29:12.617Z,99672.50
2023-04-27T11:30:29.784Z,99682.03
2023-04-27T11:33:09.677Z,99676.22
2023-04-27T11:34:26.738Z,99676.63
2023-04-27T11:35:35.227Z,99673.66
2023-04-27T11:37:18.419Z,99677.06
2023-04-27T11:38:22.187Z,99668.09
2023-04-27T11:40:42.975Z,99677.13
2023-04-27T11:43:15.745Z,99677.97
2023-04-27T11:44:17.797Z,99678.25
2023-04-27T11:46:50.266Z,99674.16
2023-04-27T11:47:52.569Z,99686.69
2023-04-27T11:49:01.923Z,99686.69
2023-04-27T11:51:34.605Z,99692.94
2023-04-27T11:52:39.283Z,99679.88
2023-04-27T11:53:56.689Z,99681.00
2023-04-27T11:58:16.364Z,99673.03
2023-04-27T12:00:49.267Z,99675.50
2023-04-27T12:01:51.981Z,99684.97
2023-04-27T12:02:54.324Z,99697.50
2023-04-27T12:03:56.959Z,99676.16
2023-04-27T12:05:00.314Z,99682.41
2023-04-27T12:07:07.499Z,99688.22
2023-04-27T12:08:09.654Z,99696.47
2023-04-27T12:09:11.835Z,99688.38
2023-04-27T12:10:14.170Z,99695.19
2023-04-27T12:11:16.425Z,99675.31
2023-04-27T12:12:19.422Z,99687.81
2023-04-27T12:13:21.485Z,99683.28
2023-04-27T12:14:24.953Z,99683.00
2023-04-27T12:15:27.255Z,99684.13
2023-04-27T12:16:29.268Z,99688.56
2023-04-27T12:17:31.802Z,99688.94
2023-04-27T12:18:34.119Z,99686.41
2023-04-27T12:19:37.354Z,99686.97
2023-04-27T12:20:39.537Z,99689.28
2023-04-27T12:21:42.870Z,99685.56
2023-04-27T12:22:45.093Z,99690.81
2023-04-27T12:23:47.072Z,99691.81
2023-04-27T12:24:49.107Z,99690.41
2023-04-27T12:25:51.439Z,99700.59
2023-04-27T12:26:53.521Z,99696.19
2023-04-27T12:27:56.042Z,99697.75
2023-04-27T12:28:58.079Z,99698.34
2023-04-27T12:30:00.695Z,99689.81
2023-04-27T12:31:06.453Z,99701.47
2023-04-27T12:32:08.433Z,99696.63
2023-04-27T12:33:11.607Z,99700.03
2023-04-27T12:34:13.867Z,99692.78
2023-04-27T12:35:16.312Z,99701.31
2023-04-27T12:36:18.549Z,99693.22
2023-04-27T12:37:22.137Z,99702.78
2023-04-27T12:38:24.071Z,99699.19
2023-04-27T12:39:26.282Z,99698.06
2023-04-27T12:40:28.212Z,99699.19
2023-04-27T12:41:31.034Z,99700.09
2023-04-27T12:42:33.460Z,99708.59
2023-04-27T12:43:37.527Z,99698.34
2023-04-27T12:44:39.517Z,99705.72
2023-04-27T12:45:42.284Z,99706.72
2023-04-27T12:46:45.384Z,99699.47
2023-04-27T12:48:01.854Z,99700.59
2023-04-27T12:49:06.542Z,99708.88
2023-04-27T12:50:09.938Z,99708.44
2023-04-27T12:51:15.124Z,99704.31
2023-04-27T12:52:17.426Z,99704.03
2023-04-27T12:53:19.911Z,99709.44
2023-04-27T12:54:22.225Z,99699.91
2023-04-27T12:55:32.848Z,99710.00
2023-04-27T12:56:36.066Z,99715.56
2023-04-27T12:57:38.035Z,99707.16
2023-04-27T12:58:41.817Z,99702.44
2023-04-27T12:59:44.258Z,99708.69
2023-04-27T13:00:46.804Z,99713.25
2023-04-27T13:01:48.872Z,99707.44
2023-04-27T13:02:52.897Z,99713.31
2023-04-27T13:03:56.284Z,99705.88
2023-04-27T13:04:58.512Z,99704.47
2023-04-27T13:06:00.725Z,99709.16
2023-04-27T13:07:03.479Z,99704.88
2023-04-27T13:08:06.071Z,99708.84
2023-04-27T13:09:08.167Z,99713.41
2023-04-27T13:10:10.482Z,99719.38
2023-04-27T13:11:12.677Z,99712.28
2023-04-27T13:12:14.618Z,99709.69
2023-04-27T13:13:16.763Z,99708.28
2023-04-27T13:14:18.771Z,99713.97
2023-04-27T13:15:21.185Z,99712.97
2023-04-27T13:16:25.756Z,99707.84
2023-04-27T13:17:28.030Z,99711.84
2023-04-27T13:18:32.858Z,99706.28
2023-04-27T13:19:37.060Z,99719.38
2023-04-27T13:20:39.484Z,99717.69
2023-04-27T13:21:41.611Z,99720.50
2023-04-27T13:22:43.667Z,99719.50
2023-04-27T13:23:45.901Z,99723.94
2023-04-27T13:24:47.973Z,99724.50
2023-04-27T13:25:50.076Z,99719.38
2023-04-27T13:26:52.818Z,99724.91
2023-04-27T13:27:54.961Z,99721.34
2023-04-27T13:28:57.417Z,99721.06